Hauptseite
METAR-TAF:

METAR-TAF

Flughäfen :

Flughafen Odense

Odense, Dänemark

Breite: 55-29N, Länge: 010-20E, Höhe: 17 m

Beobachtung

Neuester Wetterbericht von vor 44 Minuten, um 11:50 UTC
Wind 10 kt aus Nordost
Temperatur 20°C
Luftfeuchtigkeit 56%
Luftdruck 1014 hPa
Sichtweite 10 km oder mehr
keine Wolken unter 1500 m und keine Kumulonimbus oder Gewitterwolken

METAR: EKOD 181150Z 05010KT CAVOK 20/11 Q1014

Zeit: 14:34 (12:34 UTC)

Prognose

Neuester Wetterbericht von vor 3 Stunden und 36 Minuten, um 08:58 UTC
Gültige Prognose vom 18 um 09 UTC bis 18 um 15 UTC
Wind 10 kt aus Nord/Nordost
Sichtweite 10 km oder mehr
keine Wolken unter 1500 m und keine Kumulonimbus oder Gewitterwolken

TAF: EKOD 180858Z 1809/1815 03010KT CAVOK

Wetterbeobachtungen und Prognosen von mehr als 4000 Flughäfen (METAR und TAF Bericht).

Die verfügbaren Stationen werden durch gelbe und rote Markierungen auf der Karte dargestellt.

Führen Sie die Maus auf sie, um den Namen der Station zu sehen.

Darauf klicken, um die Beobachtung von Wetterbeobachtungen und Prognosen zu sehen.

Um die Karte zu ändern : klicken Sie auf den grünen Tasten mit einem schwarzen Kreuz Zum Vergrößern, auf den grünen Button mit einem Gedankenstrich zu verkleinern, oder auf die grünen Pfeile für benachbarte Karten.


METAR-TAF: